East Kingsford, Michigan
Current Conditions -  °F | °C
As of 2:54 AM on Friday 24 Oct 2014 (Local Time) from KIMT Reporting Station
Haze Haze  
Wind Chill: 41°   Ceiling: 200
Heat Index: 45°   Visibility: 5mi
Dew Point: 43°   Wind: 7mph
Humidity: 93%   Direction: 290°WNW
Pressure: 29.98"   Gusts: NA
Location:  45.9025°N, 88.0366°W
Report Text: KIMT 240754Z AUTO 29006KT 5SM BR OVC002 07/06 A2998 RMK AO2 SLP162 T00720061
Loading
Personal Weather Stations






























Interactive Weather Map
Tropical Storm Tracking
New forecast layout! Learn more

10-Day Weather Forecast

Advertisements
Track Severe Weather on mobile